Time;durP1;ratioP1;P1;durP2;ratioP2;P2;SDS_P1;SDS_P2;PMS_P1;PMS_P2;Temp;Humidity;BMP_temperature;BMP_pressure;BME280_temperature;BME280_humidity;BME280_pressure;Samples;Min_cycle;Max_cycle;Signal;HPM_P1;HPM_P2
2021/10/15 00:02:14;;;;;;;16.02;10.68;;;13.20;66.30;;;;;;6276087;22;20423;-68
2021/10/15 00:04:40;;;;;;;24.42;10.50;;;13.20;66.50;;;;;;6275953;22;20386;-67
2021/10/15 00:07:06;;;;;;;15.70;10.45;;;13.20;66.50;;;;;;6276092;22;20450;-66
2021/10/15 00:09:32;;;;;;;17.92;9.80;;;13.20;66.60;;;;;;6275697;22;20030;-67
2021/10/15 00:11:57;;;;;;;16.90;10.70;;;13.20;66.60;;;;;;6275594;22;20449;-68
2021/10/15 00:14:23;;;;;;;13.48;9.52;;;13.30;66.70;;;;;;6275999;22;20004;-67
2021/10/15 00:16:49;;;;;;;15.50;10.55;;;13.30;66.70;;;;;;6274144;22;20011;-66
2021/10/15 00:19:15;;;;;;;14.45;9.85;;;13.20;66.70;;;;;;6275921;22;20026;-67
2021/10/15 00:21:41;;;;;;;21.13;10.68;;;13.30;66.80;;;;;;6274316;22;20012;-67
2021/10/15 00:24:06;;;;;;;13.00;9.27;;;13.30;66.80;;;;;;6275753;22;20484;-68
2021/10/15 00:26:32;;;;;;;13.00;9.65;;;13.30;66.80;;;;;;6275980;22;20000;-66
2021/10/15 00:28:58;;;;;;;12.00;9.45;;;13.30;66.80;;;;;;6275995;22;19995;-66
2021/10/15 00:31:24;;;;;;;14.82;9.77;;;13.30;66.80;;;;;;6276495;22;20057;-67
2021/10/15 00:33:50;;;;;;;15.57;10.35;;;13.30;66.80;;;;;;6277776;22;19996;-67
2021/10/15 00:36:15;;;;;;;16.98;11.02;;;13.30;66.80;;;;;;6276367;22;20343;-66
2021/10/15 00:38:41;;;;;;;12.98;9.65;;;13.30;66.60;;;;;;6277908;22;19999;-68
2021/10/15 00:41:08;;;;;;;16.08;10.88;;;13.30;66.60;;;;;;6276216;22;20030;-66
2021/10/15 00:43:34;;;;;;;17.90;11.07;;;13.30;66.50;;;;;;6277592;22;20334;-67
2021/10/15 00:46:00;;;;;;;16.90;11.07;;;13.30;66.50;;;;;;6277809;22;20007;-68
2021/10/15 00:48:26;;;;;;;17.10;11.35;;;13.30;66.60;;;;;;6277693;22;20000;-68
2021/10/15 00:50:52;;;;;;;16.98;11.35;;;13.30;66.50;;;;;;6277572;22;20057;-68
2021/10/15 00:53:19;;;;;;;16.95;10.75;;;13.30;66.50;;;;;;6276387;22;20011;-68
2021/10/15 00:55:44;;;;;;;17.38;11.95;;;13.40;66.60;;;;;;6275394;22;20008;-67
2021/10/15 00:58:10;;;;;;;18.50;11.77;;;13.40;66.50;;;;;;6277778;22;20004;-68
2021/10/15 01:00:36;;;;;;;18.85;11.32;;;13.40;66.40;;;;;;6277671;22;20000;-68
2021/10/15 01:03:04;;;;;;;18.67;11.18;;;13.40;66.40;;;;;;6277428;22;20004;-67
2021/10/15 01:05:30;;;;;;;15.45;10.98;;;13.40;66.40;;;;;;6277415;22;20011;-67
2021/10/15 01:07:56;;;;;;;16.20;11.05;;;13.40;66.40;;;;;;6277588;22;20061;-68
2021/10/15 01:10:24;;;;;;;13.20;9.55;;;13.40;66.40;;;;;;6277525;22;20003;-67
2021/10/15 01:12:52;;;;;;;15.82;10.75;;;13.40;66.50;;;;;;6277200;22;20321;-68
2021/10/15 01:15:18;;;;;;;12.40;9.20;;;13.40;66.60;;;;;;6277457;22;20003;-67
2021/10/15 01:17:43;;;;;;;13.32;9.43;;;13.40;66.60;;;;;;6275932;22;20419;-67
2021/10/15 01:20:09;;;;;;;14.57;9.35;;;13.50;66.70;;;;;;6277484;22;20075;-68
2021/10/15 01:22:35;;;;;;;13.82;9.63;;;13.50;66.60;;;;;;6277285;22;20000;-67
2021/10/15 01:25:01;;;;;;;13.65;9.20;;;13.50;66.50;;;;;;6277366;22;20050;-70
2021/10/15 01:27:27;;;;;;;14.52;9.13;;;13.50;66.40;;;;;;6277457;22;20004;-68
2021/10/15 01:29:53;;;;;;;13.45;8.93;;;13.50;66.50;;;;;;6275644;22;20007;-69
2021/10/15 01:32:19;;;;;;;9.65;7.82;;;13.50;66.50;;;;;;6277414;22;20403;-67
2021/10/15 01:34:48;;;;;;;12.38;8.60;;;13.50;66.50;;;;;;6275680;22;20011;-68
2021/10/15 01:37:14;;;;;;;11.27;8.30;;;13.50;66.50;;;;;;6277320;22;20011;-66
2021/10/15 01:39:40;;;;;;;10.98;7.85;;;13.50;66.50;;;;;;6277416;22;20330;-68
2021/10/15 01:42:53;;;;;;;13.73;9.15;;;13.60;66.40;;;;;;6276967;22;20046;-68
2021/10/15 01:44:52;;;;;;;11.57;8.15;;;13.60;66.40;;;;;;6277046;22;20020;-68
2021/10/15 01:47:18;;;;;;;13.65;10.13;;;13.60;66.30;;;;;;6277191;22;20010;-68
2021/10/15 01:49:43;;;;;;;14.32;9.73;;;13.60;66.20;;;;;;6277193;22;19999;-67
2021/10/15 01:52:09;;;;;;;15.02;11.02;;;13.60;66.10;;;;;;6275437;22;20008;-68
2021/10/15 01:54:35;;;;;;;15.57;11.07;;;13.60;66.10;;;;;;6276659;22;19996;-67
2021/10/15 01:57:00;;;;;;;17.90;11.30;;;13.60;65.90;;;;;;6276934;22;20372;-67
2021/10/15 01:59:27;;;;;;;15.32;9.63;;;13.50;65.80;;;;;;6276850;22;20006;-66
2021/10/15 02:01:53;;;;;;;14.07;10.02;;;13.50;65.90;;;;;;6275364;22;20492;-67
2021/10/15 02:04:19;;;;;;;15.98;10.88;;;13.50;66.10;;;;;;6276832;22;20091;-68
2021/10/15 02:06:44;;;;;;;16.45;9.68;;;13.50;66.10;;;;;;6276611;22;19996;-67
2021/10/15 02:09:10;;;;;;;13.38;8.77;;;13.50;66.90;;;;;;6276672;22;20000;-67
2021/10/15 02:11:36;;;;;;;16.50;10.05;;;13.50;66.30;;;;;;6276796;22;20019;-67
2021/10/15 02:14:02;;;;;;;18.48;11.20;;;13.50;66.20;;;;;;6276784;22;20066;-67
2021/10/15 02:16:27;;;;;;;17.52;10.43;;;13.50;66.20;;;;;;6275449;22;20046;-68
2021/10/15 02:18:53;;;;;;;13.98;10.07;;;13.50;66.20;;;;;;6276967;22;20004;-67
2021/10/15 02:21:19;;;;;;;13.32;9.57;;;13.50;66.20;;;;;;6276886;22;19999;-66
2021/10/15 02:23:46;;;;;;;13.93;9.77;;;13.50;66.10;;;;;;6275303;22;20004;-67
2021/10/15 02:26:15;;;;;;;14.77;9.00;;;13.50;66.20;;;;;;6276804;22;20000;-67
2021/10/15 02:28:40;;;;;;;16.35;10.65;;;13.50;66.30;;;;;;6276657;22;19996;-67
2021/10/15 02:31:06;;;;;;;12.82;9.20;;;13.50;66.40;;;;;;6276707;22;20034;-67
2021/10/15 02:33:32;;;;;;;15.35;9.13;;;13.50;66.40;;;;;;6276503;22;20030;-67
2021/10/15 02:35:57;;;;;;;13.80;9.80;;;13.50;66.40;;;;;;6276708;22;20007;-67
2021/10/15 02:38:23;;;;;;;11.02;8.38;;;13.50;66.40;;;;;;6276520;22;20364;-66
2021/10/15 02:40:49;;;;;;;14.25;9.95;;;13.50;66.40;;;;;;6276790;22;20014;-66
2021/10/15 02:43:15;;;;;;;13.93;9.80;;;13.50;66.30;;;;;;6276543;22;20431;-66
2021/10/15 02:45:41;;;;;;;11.93;8.45;;;13.50;66.30;;;;;;6276733;22;20023;-67
2021/10/15 02:48:06;;;;;;;13.50;9.95;;;13.50;66.20;;;;;;6276556;22;20022;-66
2021/10/15 02:50:32;;;;;;;13.98;9.88;;;13.50;66.30;;;;;;6276596;22;20363;-67
2021/10/15 02:52:58;;;;;;;16.13;10.63;;;13.50;66.30;;;;;;6276422;22;20007;-67
2021/10/15 02:55:24;;;;;;;19.25;11.98;;;13.50;66.10;;;;;;6276393;22;20030;-66
2021/10/15 02:57:49;;;;;;;12.75;9.25;;;13.50;66.10;;;;;;6276513;22;19992;-68
2021/10/15 03:00:15;;;;;;;14.15;9.77;;;13.50;66.00;;;;;;6276309;22;20081;-67
2021/10/15 03:02:41;;;;;;;15.15;10.23;;;13.50;66.00;;;;;;6276358;22;20043;-67
2021/10/15 03:05:07;;;;;;;18.55;10.38;;;13.50;66.00;;;;;;6276212;22;20327;-67
2021/10/15 03:07:34;;;;;;;14.38;9.60;;;13.40;66.00;;;;;;6276297;22;20045;-66
2021/10/15 03:10:00;;;;;;;16.48;9.73;;;13.40;66.10;;;;;;6276441;22;20078;-68
2021/10/15 03:12:26;;;;;;;17.75;11.75;;;13.40;66.10;;;;;;6276050;22;20014;-67
2021/10/15 03:14:52;;;;;;;13.43;10.13;;;13.40;66.10;;;;;;6276697;22;20095;-67
2021/10/15 03:17:17;;;;;;;14.98;11.02;;;13.40;66.10;;;;;;6276215;22;20004;-67
2021/10/15 03:19:43;;;;;;;19.13;12.20;;;13.40;66.10;;;;;;6275735;22;20004;-67
2021/10/15 03:22:09;;;;;;;16.02;11.23;;;13.30;66.00;;;;;;6276293;22;20003;-67
2021/10/15 03:24:35;;;;;;;16.50;12.10;;;13.30;66.10;;;;;;6276010;22;20004;-67
2021/10/15 03:27:01;;;;;;;15.50;11.07;;;13.30;66.10;;;;;;6275555;22;20050;-69
2021/10/15 03:29:26;;;;;;;16.40;11.43;;;13.30;66.20;;;;;;6274542;22;20007;-68
2021/10/15 03:31:52;;;;;;;18.48;11.57;;;13.30;66.30;;;;;;6276032;22;20003;-67
2021/10/15 03:34:18;;;;;;;14.27;10.23;;;13.30;66.40;;;;;;6275972;22;19999;-67
2021/10/15 03:36:43;;;;;;;15.75;10.98;;;13.30;66.40;;;;;;6276103;22;20439;-68
2021/10/15 03:39:11;;;;;;;17.52;11.90;;;13.20;66.40;;;;;;6275969;22;20442;-67
2021/10/15 03:41:38;;;;;;;15.38;11.10;;;13.20;66.40;;;;;;6275941;22;20008;-67
2021/10/15 03:44:05;;;;;;;16.63;11.65;;;13.20;66.50;;;;;;6275854;22;20004;-67
2021/10/15 03:46:31;;;;;;;16.70;11.48;;;13.20;66.50;;;;;;6275831;22;19996;-68
2021/10/15 03:48:58;;;;;;;17.35;11.05;;;13.20;66.50;;;;;;6275806;22;19994;-67
2021/10/15 03:51:24;;;;;;;18.70;12.52;;;13.20;66.50;;;;;;6275781;22;20332;-68
2021/10/15 03:53:49;;;;;;;18.67;11.55;;;13.20;66.50;;;;;;6275905;22;19996;-67
2021/10/15 03:56:15;;;;;;;15.18;10.27;;;13.20;66.50;;;;;;6275791;22;20002;-68
2021/10/15 03:58:41;;;;;;;14.52;10.55;;;13.20;66.60;;;;;;6275745;22;20000;-67
2021/10/15 04:01:07;;;;;;;16.00;11.52;;;13.20;66.70;;;;;;6275816;22;20003;-67
2021/10/15 04:03:33;;;;;;;16.85;11.88;;;13.20;66.70;;;;;;6275616;22;20027;-68
2021/10/15 04:05:58;;;;;;;16.25;11.05;;;13.20;66.70;;;;;;6275470;22;19996;-68
2021/10/15 04:08:24;;;;;;;13.65;10.10;;;13.20;66.70;;;;;;6275616;22;20000;-68
2021/10/15 04:10:50;;;;;;;16.67;11.48;;;13.20;66.70;;;;;;6275655;22;20000;-68
2021/10/15 04:13:16;;;;;;;15.32;10.52;;;13.20;66.70;;;;;;6275562;22;20477;-67
2021/10/15 04:15:42;;;;;;;16.38;10.85;;;13.20;66.70;;;;;;6275554;22;20003;-66
2021/10/15 04:18:08;;;;;;;16.98;11.32;;;13.20;66.60;;;;;;6275627;22;20007;-68
2021/10/15 04:20:33;;;;;;;18.48;12.00;;;13.30;66.60;;;;;;6275471;22;20000;-67
2021/10/15 04:22:59;;;;;;;18.33;12.45;;;13.20;66.60;;;;;;6275502;22;20060;-67
2021/10/15 04:25:25;;;;;;;16.50;10.90;;;13.30;66.60;;;;;;6275403;22;20042;-68
2021/10/15 04:27:50;;;;;;;17.25;11.50;;;13.30;66.60;;;;;;6275490;22;19992;-67
2021/10/15 04:30:19;;;;;;;17.35;12.63;;;13.30;66.60;;;;;;6273773;22;20061;-67
2021/10/15 04:32:45;;;;;;;18.35;13.00;;;13.30;66.70;;;;;;6275350;22;20473;-68
2021/10/15 04:35:11;;;;;;;18.55;12.32;;;13.30;66.70;;;;;;6275511;22;20027;-68
2021/10/15 04:37:36;;;;;;;16.38;11.75;;;13.30;66.70;;;;;;6275534;22;20030;-68
2021/10/15 04:40:03;;;;;;;15.38;11.48;;;13.30;66.70;;;;;;6274081;22;19992;-67
2021/10/15 04:42:28;;;;;;;16.08;11.10;;;13.30;66.60;;;;;;6275724;22;20075;-67
2021/10/15 04:44:54;;;;;;;16.33;11.43;;;13.30;67.50;;;;;;6275363;22;20035;-66
2021/10/15 04:47:20;;;;;;;15.85;11.40;;;13.40;66.70;;;;;;6275528;22;19996;-67
2021/10/15 04:49:46;;;;;;;18.60;12.23;;;13.40;66.70;;;;;;6275442;22;20098;-67
2021/10/15 04:52:12;;;;;;;17.67;11.43;;;13.40;66.60;;;;;;6273808;22;20007;-67
2021/10/15 04:54:37;;;;;;;17.10;11.82;;;13.40;66.60;;;;;;6275533;22;20054;-68
2021/10/15 04:57:03;;;;;;;18.23;12.45;;;13.40;66.40;;;;;;6275539;22;20004;-67
2021/10/15 04:59:29;;;;;;;20.17;11.95;;;13.40;66.40;;;;;;6275513;22;20022;-66
2021/10/15 05:01:55;;;;;;;17.27;12.38;;;13.30;66.30;;;;;;6273850;22;20003;-68
2021/10/15 05:04:20;;;;;;;17.30;12.02;;;13.30;66.40;;;;;;6275260;22;20010;-66
2021/10/15 05:06:46;;;;;;;15.57;11.05;;;13.30;66.40;;;;;;6273694;22;20031;-69
2021/10/15 05:11:43;;;;;;;16.17;11.50;;;13.30;66.40;;;;;;6275777;22;20016;-67
2021/10/15 05:14:08;;;;;;;15.90;10.80;;;13.30;66.50;;;;;;6275529;22;20007;-68
2021/10/15 05:16:34;;;;;;;16.70;11.80;;;13.30;66.50;;;;;;6275428;22;20372;-68
2021/10/15 05:19:00;;;;;;;15.75;10.82;;;13.30;66.50;;;;;;6277216;22;20069;-66
2021/10/15 05:21:26;;;;;;;21.77;11.43;;;13.30;66.50;;;;;;6277227;22;20084;-66
2021/10/15 05:23:52;;;;;;;15.93;11.32;;;13.30;66.50;;;;;;6277087;22;20030;-65
2021/10/15 05:26:17;;;;;;;16.95;11.40;;;13.30;66.50;;;;;;6277267;22;20304;-67
2021/10/15 05:28:43;;;;;;;20.55;13.40;;;13.30;66.70;;;;;;6277123;22;19996;-66
2021/10/15 05:31:09;;;;;;;26.15;14.27;;;13.30;66.40;;;;;;6277105;22;20000;-66
2021/10/15 05:33:35;;;;;;;36.45;16.98;;;13.30;66.40;;;;;;6276969;22;19996;-66
2021/10/15 05:36:00;;;;;;;44.88;20.58;;;13.30;66.50;;;;;;6277301;22;19999;-67
2021/10/15 05:38:26;;;;;;;52.17;23.63;;;13.20;66.40;;;;;;6276742;22;20010;-66
2021/10/15 05:40:52;;;;;;;58.67;23.00;;;13.30;66.60;;;;;;6276851;22;20574;-66
2021/10/15 05:43:19;;;;;;;58.03;24.50;;;13.20;66.60;;;;;;6276902;22;19999;-67
2021/10/15 05:45:45;;;;;;;73.07;28.08;;;13.30;66.70;;;;;;6276758;22;20335;-67
2021/10/15 05:48:11;;;;;;;71.05;29.33;;;13.30;66.70;;;;;;6277027;22;19996;-67
2021/10/15 05:50:37;;;;;;;66.53;27.77;;;13.30;66.70;;;;;;6276758;22;20331;-65
2021/10/15 05:53:09;;;;;;;72.03;28.88;;;13.30;66.80;;;;;;6276795;22;20003;-67
2021/10/15 06:01:03;;;;;;;69.82;28.17;;;13.40;66.80;;;;;;6277023;22;20069;-66
2021/10/15 06:03:28;;;;;;;74.47;31.67;;;13.50;66.80;;;;;;6276829;22;20003;-67
2021/10/15 06:07:07;;;;;;;74.90;30.17;;;13.40;66.60;;;;;;6274649;22;20075;-67
2021/10/15 06:16:47;;;;;;;55.75;24.20;;;13.60;66.50;;;;;;6277652;22;20004;-68
2021/10/15 06:19:16;;;;;;;49.70;22.52;;;13.60;66.50;;;;;;6276634;22;20004;-67
2021/10/15 06:21:42;;;;;;;48.38;24.33;;;13.70;66.30;;;;;;6276714;22;20478;-68
2021/10/15 06:24:07;;;;;;;37.90;18.92;;;13.70;66.00;;;;;;6276502;22;20031;-68
2021/10/15 06:26:33;;;;;;;29.77;18.52;;;13.70;65.50;;;;;;6276197;22;20002;-67
2021/10/15 06:28:59;;;;;;;26.98;17.02;;;13.70;65.50;;;;;;6276296;22;19996;-68
2021/10/15 06:31:25;;;;;;;26.67;17.15;;;13.70;65.30;;;;;;6276243;22;20000;-68
2021/10/15 06:33:51;;;;;;;23.90;15.18;;;13.70;65.10;;;;;;6276657;22;20030;-66
2021/10/15 06:36:16;;;;;;;29.42;16.85;;;13.70;65.20;;;;;;6276614;22;20030;-67
2021/10/15 06:38:42;;;;;;;22.90;14.63;;;13.80;65.10;;;;;;6276642;22;20000;-67
2021/10/15 06:41:08;;;;;;;24.98;15.63;;;13.80;66.00;;;;;;6274616;22;20385;-67
2021/10/15 06:43:34;;;;;;;26.73;15.73;;;13.80;65.30;;;;;;6276284;22;20087;-67
2021/10/15 06:46:00;;;;;;;25.15;16.67;;;13.90;65.40;;;;;;6276624;22;20034;-68
2021/10/15 06:48:25;;;;;;;30.67;16.13;;;13.90;65.30;;;;;;6274918;22;19999;-68
2021/10/15 06:50:51;;;;;;;26.30;16.20;;;13.90;65.30;;;;;;6276414;22;20062;-67
2021/10/15 06:53:17;;;;;;;26.17;16.52;;;14.00;65.40;;;;;;6276498;22;20007;-67
2021/10/15 06:55:43;;;;;;;25.75;15.85;;;14.00;65.40;;;;;;6276312;22;20445;-67
2021/10/15 06:58:08;;;;;;;41.60;21.58;;;14.10;65.50;;;;;;6276346;22;20327;-67
2021/10/15 07:00:34;;;;;;;37.45;20.30;;;14.20;64.90;;;;;;6276491;22;20003;-68
2021/10/15 07:03:00;;;;;;;41.58;20.48;;;14.20;64.80;;;;;;6276243;22;19999;-67
2021/10/15 07:05:26;;;;;;;37.03;19.90;;;14.30;64.80;;;;;;6276329;22;20305;-68
2021/10/15 07:07:53;;;;;;;39.75;21.38;;;14.40;64.90;;;;;;6276112;22;20067;-68
2021/10/15 07:10:18;;;;;;;35.25;19.10;;;14.50;64.90;;;;;;6276286;22;20052;-69
2021/10/15 07:12:45;;;;;;;37.08;22.00;;;14.60;64.90;;;;;;6275938;22;20079;-68
2021/10/15 07:15:15;;;;;;;33.00;18.63;;;14.70;64.50;;;;;;6274666;22;20000;-68
2021/10/15 07:17:41;;;;;;;28.02;17.20;;;14.80;63.50;;;;;;6276118;22;19995;-67
2021/10/15 07:20:09;;;;;;;33.65;17.75;;;14.90;63.60;;;;;;6276044;22;19996;-67
2021/10/15 07:22:35;;;;;;;32.45;18.75;;;15.00;63.50;;;;;;6275962;22;20003;-68
2021/10/15 07:25:02;;;;;;;27.90;17.35;;;15.10;63.20;;;;;;6276204;22;20030;-67
2021/10/15 07:27:28;;;;;;;24.48;16.50;;;15.10;62.90;;;;;;6276007;22;20003;-68
2021/10/15 07:29:53;;;;;;;29.20;17.50;;;15.20;62.80;;;;;;6275975;22;19996;-68
2021/10/15 07:32:19;;;;;;;28.52;17.00;;;15.30;62.70;;;;;;6275717;22;20316;-67
2021/10/15 07:34:45;;;;;;;30.35;18.13;;;15.40;62.30;;;;;;6275580;22;20011;-68
2021/10/15 07:37:11;;;;;;;30.40;17.63;;;15.40;62.10;;;;;;6275687;22;20387;-68
2021/10/15 07:39:37;;;;;;;26.88;17.13;;;15.50;62.00;;;;;;6274264;22;20003;-68
2021/10/15 07:42:04;;;;;;;32.65;17.95;;;15.60;62.80;;;;;;6275070;22;20075;-68
2021/10/15 07:44:31;;;;;;;26.63;16.20;;;15.60;61.40;;;;;;6275301;22;20004;-68
2021/10/15 07:46:56;;;;;;;29.80;15.32;;;15.70;61.30;;;;;;6275977;22;19995;-67
2021/10/15 07:49:22;;;;;;;32.95;19.42;;;15.70;61.20;;;;;;6274810;22;20006;-68
2021/10/15 07:51:48;;;;;;;30.58;18.70;;;15.70;60.40;;;;;;6273986;22;20004;-68
2021/10/15 07:54:14;;;;;;;37.22;22.13;;;15.70;60.10;;;;;;6273818;22;20062;-67
2021/10/15 07:56:40;;;;;;;65.47;30.70;;;15.70;59.90;;;;;;6272888;22;20082;-68
2021/10/15 07:59:06;;;;;;;82.72;36.28;;;15.60;59.80;;;;;;6272554;22;20034;-69
2021/10/15 08:01:31;;;;;;;74.88;36.17;;;15.50;59.90;;;;;;6272643;22;20007;-67
2021/10/15 08:03:59;;;;;;;89.72;40.45;;;15.40;60.80;;;;;;6273979;22;20039;-67
2021/10/15 08:06:25;;;;;;;85.57;39.15;;;15.30;60.10;;;;;;6274815;22;20038;-68
2021/10/15 08:08:51;;;;;;;102.90;45.92;;;15.20;60.30;;;;;;6273294;22;20007;-68
2021/10/15 08:11:18;;;;;;;99.03;44.92;;;15.20;60.60;;;;;;6275782;22;19999;-68
2021/10/15 08:13:44;;;;;;;85.60;40.25;;;15.10;60.70;;;;;;6274257;22;20015;-68
2021/10/15 08:16:10;;;;;;;98.57;43.10;;;15.00;60.90;;;;;;6275466;22;20428;-67
2021/10/15 08:18:36;;;;;;;87.82;42.60;;;15.00;61.40;;;;;;6275064;22;20079;-67
2021/10/15 08:21:02;;;;;;;94.68;47.22;;;14.90;61.70;;;;;;6274148;22;20073;-67
2021/10/15 08:23:29;;;;;;;93.90;45.83;;;14.90;61.90;;;;;;6275625;22;20409;-68
2021/10/15 08:25:57;;;;;;;94.45;49.72;;;14.90;62.10;;;;;;6274234;22;20305;-68
2021/10/15 08:28:24;;;;;;;98.97;47.88;;;14.90;62.60;;;;;;6274007;22;20327;-67
2021/10/15 08:30:50;;;;;;;90.15;44.25;;;15.00;63.00;;;;;;6275619;22;20322;-68
2021/10/15 08:33:16;;;;;;;82.15;43.38;;;15.10;63.30;;;;;;6274447;22;20386;-67
2021/10/15 08:35:42;;;;;;;84.22;43.78;;;15.30;63.40;;;;;;6275386;22;20004;-68
2021/10/15 08:38:08;;;;;;;78.78;43.08;;;15.40;62.90;;;;;;6275409;22;19999;-68
2021/10/15 08:40:33;;;;;;;101.85;53.03;;;15.60;62.70;;;;;;6274052;22;19999;-68
2021/10/15 08:42:59;;;;;;;84.78;47.08;;;15.70;61.80;;;;;;6273938;22;20007;-66
2021/10/15 08:45:28;;;;;;;91.78;48.33;;;15.80;61.50;;;;;;6272969;22;19996;-67
2021/10/15 08:47:54;;;;;;;85.85;47.53;;;15.90;61.00;;;;;;6274882;22;20003;-67
2021/10/15 08:50:21;;;;;;;93.13;48.20;;;16.00;60.60;;;;;;6275497;22;20024;-67
2021/10/15 08:52:47;;;;;;;97.43;51.03;;;16.00;60.10;;;;;;6275273;22;19996;-67
2021/10/15 08:55:13;;;;;;;106.22;54.13;;;16.00;59.90;;;;;;6275924;22;20070;-66
2021/10/15 08:57:46;;;;;;;107.20;53.60;;;16.00;59.90;;;;;;6277994;22;20003;-68
2021/10/15 09:00:33;;;;;;;93.30;48.92;;;16.00;59.70;;;;;;6277733;22;20003;-66
2021/10/15 09:03:30;;;;;;;80.35;44.85;;;16.00;59.70;;;;;;6274640;22;20000;-68
2021/10/15 09:06:00;;;;;;;82.25;45.38;;;15.90;59.80;;;;;;6182728;23;20009;-67
2021/10/15 09:08:50;;;;;;;85.45;44.88;;;15.90;59.70;;;;;;6183811;23;20001;-67
2021/10/15 09:11:37;;;;;;;98.25;50.35;;;15.80;59.80;;;;;;6183282;23;20001;-69
2021/10/15 09:14:13;;;;;;;98.00;51.90;;;15.70;59.60;;;;;;6123549;23;20017;-67
2021/10/15 09:16:56;;;;;;;94.97;49.25;;;15.70;59.80;;;;;;6099536;23;20370;-68
2021/10/15 09:19:34;;;;;;;88.70;48.25;;;15.70;60.10;;;;;;6099867;23;20089;-67
2021/10/15 09:22:15;;;;;;;81.65;43.45;;;15.70;60.40;;;;;;6124365;23;20351;-68
2021/10/15 09:24:40;;;;;;;86.47;47.72;;;15.70;60.50;;;;;;6122665;23;20010;-67
2021/10/15 09:27:38;;;;;;;87.70;49.28;;;15.70;60.70;;;;;;6124396;23;20465;-67
2021/10/15 09:30:08;;;;;;;83.75;45.97;;;15.70;60.60;;;;;;6124500;23;20002;-67
2021/10/15 09:32:38;;;;;;;97.82;51.58;;;15.70;60.80;;;;;;6124239;23;20043;-67
2021/10/15 09:35:06;;;;;;;96.30;50.22;;;15.80;60.70;;;;;;6124184;23;20005;-68
2021/10/15 09:37:34;;;;;;;88.90;48.63;;;15.80;60.50;;;;;;6123972;23;20468;-68
2021/10/15 09:40:05;;;;;;;83.97;44.38;;;15.80;60.50;;;;;;6122821;23;20085;-67
2021/10/15 09:42:32;;;;;;;77.60;42.80;;;15.80;60.10;;;;;;6197113;23;20004;-67
2021/10/15 09:45:16;;;;;;;82.38;43.58;;;15.90;60.00;;;;;;6246304;23;20010;-68
2021/10/15 09:47:52;;;;;;;73.88;39.22;;;15.90;59.50;;;;;;6246385;23;20003;-68
2021/10/15 09:50:22;;;;;;;66.55;34.80;;;15.90;59.40;;;;;;6246336;23;20007;-68
2021/10/15 09:52:50;;;;;;;64.30;33.17;;;16.00;59.30;;;;;;6246270;23;20020;-68
2021/10/15 09:55:25;;;;;;;58.50;33.03;;;16.10;59.00;;;;;;6246083;23;20054;-67
2021/10/15 09:57:52;;;;;;;59.35;33.53;;;16.10;59.00;;;;;;6246389;23;20000;-68
2021/10/15 10:00:21;;;;;;;73.97;38.50;;;16.10;59.10;;;;;;6246357;23;19996;-68
2021/10/15 10:02:47;;;;;;;81.53;42.78;;;16.20;59.90;;;;;;6246118;23;20031;-67
2021/10/15 10:05:16;;;;;;;80.88;42.67;;;16.20;59.30;;;;;;6245789;23;20004;-67
2021/10/15 10:07:44;;;;;;;84.07;43.30;;;16.30;58.90;;;;;;6246034;23;20000;-67
2021/10/15 10:10:14;;;;;;;77.00;40.50;;;16.30;58.90;;;;;;6246029;23;20007;-69
2021/10/15 10:12:41;;;;;;;74.95;38.80;;;16.30;59.20;;;;;;6263620;22;20031;-68
2021/10/15 10:15:10;;;;;;;64.43;37.78;;;16.30;59.10;;;;;;6276801;22;20008;-68
2021/10/15 10:18:11;;;;;;;64.13;37.67;;;16.40;59.00;;;;;;6276801;22;20004;-67
2021/10/15 10:20:40;;;;;;;70.25;35.97;;;16.40;59.00;;;;;;6269557;22;20374;-68
2021/10/15 10:23:06;;;;;;;59.33;33.10;;;16.40;59.10;;;;;;6276087;22;20420;-67
2021/10/15 10:25:32;;;;;;;59.45;31.63;;;16.50;59.10;;;;;;6275592;22;20006;-67
2021/10/15 10:28:12;;;;;;;50.35;26.77;;;16.50;59.20;;;;;;6276155;22;20038;-67
2021/10/15 10:30:40;;;;;;;49.13;28.00;;;16.50;59.00;;;;;;6276713;22;20010;-69
2021/10/15 10:33:06;;;;;;;50.92;25.90;;;16.50;58.80;;;;;;6276346;22;20007;-68
2021/10/15 10:35:33;;;;;;;47.38;23.27;;;16.60;58.40;;;;;;6276412;22;20492;-68
2021/10/15 10:38:21;;;;;;;42.83;23.25;;;16.60;58.40;;;;;;6276400;22;20063;-67
2021/10/15 10:41:02;;;;;;;49.05;24.05;;;16.70;58.20;;;;;;6276309;22;20446;-68
2021/10/15 10:43:29;;;;;;;47.20;24.20;;;16.70;58.00;;;;;;6276328;22;20003;-67
2021/10/15 10:46:10;;;;;;;46.05;24.02;;;16.70;57.60;;;;;;6276292;22;20000;-68
2021/10/15 10:48:49;;;;;;;48.83;24.35;;;16.70;57.50;;;;;;6276292;22;20168;-68
2021/10/15 10:51:16;;;;;;;39.67;22.90;;;16.70;57.70;;;;;;6276484;22;20070;-67
2021/10/15 10:56:42;;;;;;;46.33;24.25;;;16.70;58.00;;;;;;6276436;22;20018;-66
2021/10/15 10:59:17;;;;;;;44.13;21.98;;;16.70;57.80;;;;;;6275926;22;20006;-67
2021/10/15 11:01:47;;;;;;;36.47;20.23;;;16.80;57.70;;;;;;6276263;22;20000;-66
2021/10/15 11:04:33;;;;;;;43.67;20.38;;;16.80;57.50;;;;;;6276141;22;20010;-67
2021/10/15 11:07:03;;;;;;;39.45;21.42;;;16.80;56.90;;;;;;6276230;22;19996;-67
2021/10/15 11:09:45;;;;;;;36.67;21.20;;;16.80;57.30;;;;;;6276643;22;20023;-68
2021/10/15 11:12:14;;;;;;;36.08;18.77;;;16.90;57.30;;;;;;6275957;22;20380;-68
2021/10/15 11:14:56;;;;;;;30.67;18.13;;;16.90;57.00;;;;;;6275712;22;20003;-66
2021/10/15 11:17:35;;;;;;;40.13;18.77;;;16.90;56.70;;;;;;6276065;22;19999;-68
2021/10/15 11:20:25;;;;;;;39.00;18.85;;;17.00;57.20;;;;;;6275953;22;20309;-67
2021/10/15 11:23:05;;;;;;;29.15;14.98;;;17.00;57.20;;;;;;6275810;22;20000;-68
2021/10/15 11:25:40;;;;;;;29.95;16.08;;;17.00;57.00;;;;;;6275975;22;20000;-67
2021/10/15 11:28:12;;;;;;;33.10;15.93;;;17.10;56.90;;;;;;6276024;22;20000;-67
2021/10/15 11:30:42;;;;;;;35.28;16.98;;;17.10;56.90;;;;;;6276244;22;20079;-67
2021/10/15 11:33:10;;;;;;;27.30;15.23;;;17.10;56.70;;;;;;6276167;22;20473;-68
2021/10/15 11:35:39;;;;;;;30.02;16.55;;;17.10;56.60;;;;;;6276046;22;20035;-68
2021/10/15 11:38:06;;;;;;;43.30;17.98;;;17.20;56.80;;;;;;6275936;22;19999;-67
2021/10/15 11:40:41;;;;;;;30.40;16.60;;;17.20;56.90;;;;;;6275944;22;20052;-67
2021/10/15 11:43:12;;;;;;;33.22;17.17;;;17.20;57.10;;;;;;6274322;22;20007;-67
2021/10/15 11:45:43;;;;;;;27.70;15.10;;;17.20;56.70;;;;;;6274103;22;20060;-69
2021/10/15 11:48:17;;;;;;;27.52;14.68;;;17.30;56.60;;;;;;6275666;22;20071;-68
2021/10/15 11:50:43;;;;;;;25.20;14.15;;;17.30;56.70;;;;;;6276087;22;20359;-67
2021/10/15 11:53:09;;;;;;;28.35;13.88;;;17.40;57.00;;;;;;6275907;22;19999;-68
2021/10/15 11:55:38;;;;;;;31.10;14.73;;;17.40;57.00;;;;;;6275976;22;20351;-68
2021/10/15 11:58:34;;;;;;;21.90;11.35;;;17.40;56.10;;;;;;6274298;22;20360;-67
2021/10/15 12:01:07;;;;;;;17.42;8.48;;;17.50;55.70;;;;;;6276067;22;20308;-68
2021/10/15 12:03:51;;;;;;;21.38;9.48;;;17.50;55.00;;;;;;6274071;22;20008;-68
2021/10/15 12:06:19;;;;;;;11.57;5.45;;;17.50;55.10;;;;;;6275837;22;19992;-70
2021/10/15 12:08:49;;;;;;;13.65;3.95;;;17.60;53.20;;;;;;6275748;22;19996;-68
2021/10/15 12:11:44;;;;;;;7.47;3.72;;;17.60;52.30;;;;;;6275878;22;20000;-68
2021/10/15 12:14:31;;;;;;;4.70;2.88;;;17.60;52.50;;;;;;6245186;23;20094;-67
2021/10/15 12:17:04;;;;;;;4.60;2.10;;;17.60;51.90;;;;;;6245182;23;20027;-67
2021/10/15 12:19:37;;;;;;;2.95;1.83;;;17.60;50.70;;;;;;6245032;23;20336;-66
2021/10/15 12:22:16;;;;;;;4.38;2.75;;;17.70;51.50;;;;;;6245082;23;20011;-67
2021/10/15 12:24:45;;;;;;;7.95;1.98;;;17.70;51.40;;;;;;6244967;23;20004;-68
2021/10/15 12:27:19;;;;;;;4.30;2.08;;;17.80;51.00;;;;;;6244723;23;20031;-67
2021/10/15 12:29:58;;;;;;;2.60;1.90;;;17.80;51.00;;;;;;6245005;23;19989;-67
2021/10/15 12:32:33;;;;;;;3.15;1.65;;;17.80;50.80;;;;;;6244895;23;19996;-66
2021/10/15 12:35:14;;;;;;;4.20;2.55;;;17.80;50.70;;;;;;6218123;23;19996;-68
2021/10/15 12:37:43;;;;;;;4.55;2.60;;;17.80;50.50;;;;;;6245050;23;20000;-68
2021/10/15 12:40:24;;;;;;;4.05;2.58;;;17.90;51.10;;;;;;6244899;23;20008;-68
2021/10/15 12:42:56;;;;;;;3.55;2.45;;;17.90;51.00;;;;;;6218099;23;19993;-68
2021/10/15 12:45:24;;;;;;;5.60;3.08;;;17.90;50.90;;;;;;6218059;23;20000;-67
2021/10/15 12:48:02;;;;;;;8.80;3.88;;;17.90;51.20;;;;;;6218145;23;20024;-68
2021/10/15 12:50:31;;;;;;;6.18;4.20;;;17.90;51.30;;;;;;6244773;23;19996;-67
2021/10/15 12:52:57;;;;;;;5.68;3.58;;;18.00;51.20;;;;;;6244918;23;20436;-68
2021/10/15 12:55:27;;;;;;;10.93;3.70;;;17.90;50.50;;;;;;6244928;23;20020;-67
2021/10/15 12:58:06;;;;;;;5.57;3.45;;;18.00;51.30;;;;;;6244966;23;20000;-68